Time;durP1;ratioP1;P1;durP2;ratioP2;P2;SDS_P1;SDS_P2;PMS_P1;PMS_P2;Temp;Humidity;BMP_temperature;BMP_pressure;BME280_temperature;BME280_humidity;BME280_pressure;Samples;Min_cycle;Max_cycle;Signal;HPM_P1;HPM_P2
2022/10/22 07:21:36;;;;;;;17.83;16.65;;;21.00;99.90;;;;;;6191611;23;20538;-92
2022/10/22 07:24:06;;;;;;;18.23;17.00;;;21.20;99.90;;;;;;6193186;23;20025;-93
2022/10/22 07:26:33;;;;;;;18.02;16.27;;;21.50;99.90;;;;;;6189525;23;20043;-92
2022/10/22 07:29:00;;;;;;;17.63;16.33;;;21.50;99.90;;;;;;6190255;23;20001;-93
2022/10/22 07:31:27;;;;;;;16.80;15.63;;;21.60;99.90;;;;;;6184184;23;20009;-94
2022/10/22 07:33:54;;;;;;;17.95;16.75;;;21.70;99.90;;;;;;6134795;23;20001;-93
2022/10/22 07:36:21;;;;;;;18.00;16.45;;;21.80;99.90;;;;;;6184946;23;20033;-93
2022/10/22 07:38:53;;;;;;;17.42;16.27;;;21.50;99.90;;;;;;6183882;23;20013;-93
2022/10/22 07:41:19;;;;;;;18.65;17.15;;;21.70;99.90;;;;;;6184751;23;20013;-92
2022/10/22 07:43:46;;;;;;;17.85;16.67;;;21.70;99.90;;;;;;6184350;23;20092;-93
2022/10/22 07:46:12;;;;;;;18.05;16.80;;;22.00;99.90;;;;;;6183676;23;20017;-91
2022/10/22 07:48:39;;;;;;;18.73;17.20;;;22.10;99.90;;;;;;6182965;23;20348;-92
2022/10/22 07:51:06;;;;;;;17.65;16.50;;;22.10;99.90;;;;;;6183017;23;20435;-91
2022/10/22 07:53:33;;;;;;;17.38;16.30;;;22.00;99.90;;;;;;6182629;23;20371;-92
2022/10/22 07:56:00;;;;;;;18.20;16.90;;;22.00;99.90;;;;;;6158227;23;20010;-92
2022/10/22 07:58:26;;;;;;;18.35;17.08;;;22.10;99.90;;;;;;6182780;23;20006;-93
2022/10/22 08:01:00;;;;;;;17.92;16.65;;;22.50;99.90;;;;;;6182542;23;20041;-92
2022/10/22 08:03:27;;;;;;;;;;;23.00;99.90;;;;;;6135417;23;20006;-92
2022/10/22 08:05:54;;;;;;;18.00;16.77;;;22.90;99.90;;;;;;6158694;23;19920;-92
2022/10/22 08:08:21;;;;;;;19.40;17.90;;;22.80;99.90;;;;;;6153135;23;20092;-92
2022/10/22 08:10:51;;;;;;;19.17;17.85;;;22.70;99.90;;;;;;6181888;23;20002;-91
2022/10/22 08:13:19;;;;;;;19.40;17.83;;;22.60;99.90;;;;;;6182498;23;20020;-93
2022/10/22 08:15:46;;;;;;;19.38;17.98;;;22.30;99.90;;;;;;6157795;23;20080;-92
2022/10/22 08:18:13;;;;;;;19.73;18.23;;;22.50;99.90;;;;;;6182148;23;20010;-92
2022/10/22 08:20:41;;;;;;;20.48;18.95;;;22.60;99.90;;;;;;6181897;23;20018;-92
2022/10/22 08:23:08;;;;;;;20.42;18.83;;;22.90;99.90;;;;;;6157039;23;20015;-92
2022/10/22 08:25:35;;;;;;;20.35;18.73;;;23.00;99.90;;;;;;6157960;23;20017;-94
2022/10/22 08:28:02;;;;;;;20.42;18.83;;;23.00;99.90;;;;;;6157761;23;20472;-94
2022/10/22 08:30:43;;;;;;;21.13;19.35;;;23.10;99.90;;;;;;6157357;23;20016;-93
2022/10/22 08:33:10;;;;;;;20.70;19.05;;;23.00;99.90;;;;;;6156978;23;20006;-95
2022/10/22 08:35:36;;;;;;;21.35;19.83;;;23.00;99.90;;;;;;6157026;23;20016;-91
2022/10/22 08:38:03;;;;;;;21.35;19.77;;;23.40;99.90;;;;;;6156923;23;20005;-92
2022/10/22 08:40:37;;;;;;;20.75;19.05;;;23.60;99.90;;;;;;6157932;23;20044;-92
2022/10/22 08:43:14;;;;;;;20.60;19.20;;;23.70;99.90;;;;;;6156974;23;20013;-92
2022/10/22 08:46:21;;;;;;;20.58;19.13;;;23.60;99.90;;;;;;6157190;23;20502;-93
2022/10/22 08:48:51;;;;;;;20.00;18.60;;;23.60;99.90;;;;;;6016305;23;20011;-94
2022/10/22 08:51:22;;;;;;;21.23;19.67;;;23.40;99.90;;;;;;6020081;23;20133;-92
2022/10/22 08:54:06;;;;;;;21.88;19.85;;;23.30;99.90;;;;;;6019239;23;20018;-92
2022/10/22 08:56:35;;;;;;;21.87;20.10;;;23.30;99.90;;;;;;6017743;23;20479;-92
2022/10/22 08:59:12;;;;;;;21.77;20.08;;;23.50;99.90;;;;;;6016242;23;20007;-90
2022/10/22 09:01:44;;;;;;;22.25;20.55;;;23.30;99.90;;;;;;6016100;23;20022;-92
2022/10/22 09:04:20;;;;;;;22.17;20.48;;;23.30;99.90;;;;;;6016104;23;20461;-92
2022/10/22 09:06:48;;;;;;;21.30;19.60;;;23.40;99.90;;;;;;6016885;23;20012;-91
2022/10/22 09:09:18;;;;;;;21.13;19.42;;;23.60;99.90;;;;;;6016174;23;20094;-92
2022/10/22 09:11:50;;;;;;;21.33;19.48;;;23.50;99.90;;;;;;6015967;23;20016;-92
2022/10/22 09:14:21;;;;;;;20.90;19.40;;;23.70;99.90;;;;;;6016277;23;20111;-93
2022/10/22 09:16:57;;;;;;;21.65;20.05;;;24.00;99.90;;;;;;6016563;23;20011;-93
2022/10/22 09:20:05;;;;;;;21.27;19.55;;;24.20;99.90;;;;;;6040107;23;20011;-92
2022/10/22 09:23:10;;;;;;;21.90;20.08;;;24.30;99.90;;;;;;6069495;23;20013;-91
2022/10/22 09:25:45;;;;;;;21.80;20.00;;;24.10;99.90;;;;;;6156230;23;20008;-93
2022/10/22 09:28:12;;;;;;;22.08;20.30;;;23.90;99.90;;;;;;6201128;23;20009;-95
2022/10/22 09:30:40;;;;;;;23.17;21.33;;;24.10;99.90;;;;;;6193460;23;20459;-92
2022/10/22 09:33:08;;;;;;;24.48;22.33;;;24.30;99.90;;;;;;6162559;23;20016;-91
2022/10/22 09:35:51;;;;;;;23.95;21.85;;;24.70;99.90;;;;;;6138602;23;20036;-91
2022/10/22 09:38:36;;;;;;;22.40;20.70;;;24.80;99.90;;;;;;6186317;23;20084;-93
2022/10/22 09:41:46;;;;;;;21.02;19.63;;;24.50;99.90;;;;;;6162596;23;20059;-93
2022/10/22 09:44:13;;;;;;;21.45;19.88;;;24.50;99.90;;;;;;6136846;23;20370;-93
2022/10/22 09:46:44;;;;;;;21.45;19.85;;;24.70;99.90;;;;;;6185918;23;20009;-93
2022/10/22 09:49:18;;;;;;;21.38;19.73;;;24.70;99.90;;;;;;6186036;23;20415;-91
2022/10/22 09:51:54;;;;;;;21.58;19.75;;;24.40;99.90;;;;;;6185862;23;20446;-94
2022/10/22 09:54:41;;;;;;;21.55;19.95;;;24.40;99.90;;;;;;6186221;23;20012;-91
2022/10/22 09:57:09;;;;;;;22.05;20.38;;;24.40;99.90;;;;;;6185882;23;20032;-93
2022/10/22 09:59:42;;;;;;;21.67;20.10;;;24.40;99.90;;;;;;6137915;23;20012;-93
2022/10/22 10:02:26;;;;;;;22.27;20.48;;;24.40;99.90;;;;;;6186597;23;20005;-94
2022/10/22 10:04:59;;;;;;;21.63;20.02;;;24.50;99.90;;;;;;6185855;23;20005;-94
2022/10/22 10:07:34;;;;;;;21.08;19.25;;;24.50;99.90;;;;;;6160356;23;20028;-93
2022/10/22 10:10:03;;;;;;;20.48;19.05;;;24.70;99.90;;;;;;6186835;23;20087;-93
2022/10/22 10:12:57;;;;;;;20.52;18.95;;;24.80;99.90;;;;;;6186089;23;20432;-92
2022/10/22 10:15:46;;;;;;;22.15;20.30;;;24.70;99.90;;;;;;6186687;23;20005;-91
2022/10/22 10:18:46;;;;;;;20.30;18.80;;;24.60;99.90;;;;;;6185630;23;20083;-91
2022/10/22 10:21:24;;;;;;;21.25;19.60;;;24.60;99.90;;;;;;6155515;23;20018;-93
2022/10/22 10:24:18;;;;;;;21.55;19.95;;;24.60;99.90;;;;;;6132522;23;20009;-91
2022/10/22 10:27:26;;;;;;;21.73;20.15;;;24.50;99.90;;;;;;6156081;23;20024;-92
2022/10/22 10:30:16;;;;;;;21.50;19.77;;;24.20;99.90;;;;;;6140923;23;20012;-94
2022/10/22 10:32:59;;;;;;;20.77;19.05;;;24.00;99.90;;;;;;6180828;23;20010;-94
2022/10/22 10:35:53;;;;;;;23.13;21.13;;;23.90;99.90;;;;;;6156490;23;20092;-92
2022/10/22 10:38:36;;;;;;;19.95;18.45;;;24.30;99.90;;;;;;6156538;23;20454;-93
2022/10/22 10:41:14;;;;;;;21.33;19.73;;;24.40;99.90;;;;;;6155960;23;20009;-94
2022/10/22 10:44:00;;;;;;;22.58;20.67;;;23.90;99.90;;;;;;6157007;23;20010;-92
2022/10/22 10:46:36;;;;;;;22.33;20.42;;;23.70;99.90;;;;;;6155920;23;20021;-92
2022/10/22 10:49:08;;;;;;;22.35;20.45;;;23.90;99.90;;;;;;6156214;23;20010;-91
2022/10/22 10:51:44;;;;;;;22.30;20.50;;;24.20;99.90;;;;;;6180649;23;20017;-91
2022/10/22 10:54:47;;;;;;;22.23;20.42;;;24.30;99.90;;;;;;6155347;23;20005;-92
2022/10/22 10:57:29;;;;;;;21.52;19.90;;;24.30;99.90;;;;;;6155567;23;20013;-92
2022/10/22 11:00:02;;;;;;;21.52;19.90;;;24.10;99.90;;;;;;6156037;23;20131;-94
2022/10/22 11:03:03;;;;;;;22.23;20.50;;;24.10;99.90;;;;;;6155680;23;20037;-92
2022/10/22 11:05:56;;;;;;;21.60;19.90;;;23.70;99.90;;;;;;6155957;23;20450;-92
2022/10/22 11:08:32;;;;;;;23.00;21.20;;;23.70;99.90;;;;;;6155711;23;20006;-93
2022/10/22 11:11:12;;;;;;;22.17;20.45;;;23.80;99.90;;;;;;6155755;23;20013;-95
2022/10/22 11:13:55;;;;;;;20.48;18.75;;;24.00;99.90;;;;;;6155542;23;20006;-92
2022/10/22 11:16:35;;;;;;;21.33;19.70;;;24.30;99.90;;;;;;6155760;23;20320;-92
2022/10/22 11:19:44;;;;;;;21.80;20.15;;;24.40;99.90;;;;;;6156659;23;20006;-93
2022/10/22 11:22:18;;;;;;;22.05;20.50;;;24.50;99.90;;;;;;6151876;23;20044;-93
2022/10/22 11:24:49;;;;;;;;;;;24.60;99.90;;;;;;6168666;23;20021;-94
2022/10/22 11:27:51;;;;;;;21.10;19.40;;;24.50;99.90;;;;;;6170834;23;19912;-93
2022/10/22 11:30:22;;;;;;;22.53;20.60;;;24.20;99.90;;;;;;6057408;23;20065;-94
2022/10/22 11:35:58;;;;;;;21.33;19.63;;;24.40;99.90;;;;;;6241836;22;20016;-93
2022/10/22 11:38:26;;;;;;;21.42;19.92;;;24.20;99.90;;;;;;6245551;23;20031;-92
2022/10/22 11:41:18;;;;;;;22.33;20.70;;;24.00;99.90;;;;;;6238787;23;20052;-93
2022/10/22 11:45:27;;;;;;;;;;;;;;;;;;;;;
2022/10/22 11:54:09;;;;;;;20.60;19.17;;;24.40;99.90;;;;;;6250015;22;20078;-92
2022/10/22 12:00:48;;;;;;;21.02;19.40;;;24.10;99.90;;;;;;6262447;22;20028;-92
2022/10/22 12:08:22;;;;;;;22.58;20.30;;;23.70;99.90;;;;;;6261397;22;20046;-94
2022/10/22 14:14:38;;;;;;;21.15;19.60;;;22.80;99.90;;;;;;6254449;22;20453;-92
2022/10/22 14:17:18;;;;;;;21.85;20.00;;;22.80;99.90;;;;;;6221258;22;20008;-92
2022/10/22 14:19:46;;;;;;;21.48;19.70;;;22.80;99.90;;;;;;6196009;23;20091;-92
2022/10/22 14:22:16;;;;;;;22.05;19.90;;;22.80;99.90;;;;;;6195831;23;20058;-93
2022/10/22 14:24:44;;;;;;;21.02;19.20;;;22.70;99.90;;;;;;6196184;23;20043;-92
2022/10/22 14:27:13;;;;;;;21.30;19.50;;;22.50;99.90;;;;;;6196097;23;20449;-92
2022/10/22 14:29:55;;;;;;;21.63;19.67;;;22.40;99.90;;;;;;6196692;23;20004;-92
2022/10/22 14:32:22;;;;;;;21.42;19.65;;;22.40;99.90;;;;;;6196104;23;20012;-94
2022/10/22 14:34:49;;;;;;;21.30;19.50;;;22.40;99.90;;;;;;6197017;23;20004;-93
2022/10/22 14:37:18;;;;;;;20.45;18.92;;;22.30;99.90;;;;;;6195721;23;20426;-94
2022/10/22 14:39:50;;;;;;;21.70;19.77;;;22.30;99.90;;;;;;6195740;23;20507;-94
2022/10/22 14:42:18;;;;;;;21.58;19.55;;;22.20;99.90;;;;;;6196301;23;20012;-94
2022/10/22 14:45:04;;;;;;;20.95;19.33;;;22.20;99.90;;;;;;6196464;23;20012;-93
2022/10/22 14:47:40;;;;;;;22.73;20.83;;;22.10;99.90;;;;;;6199599;23;20008;-93
2022/10/22 14:50:07;;;;;;;21.38;19.67;;;22.10;99.90;;;;;;6222953;23;20043;-93
2022/10/22 14:52:34;;;;;;;21.73;20.13;;;22.00;99.90;;;;;;6220636;22;20075;-93
2022/10/22 14:55:25;;;;;;;21.65;19.77;;;22.00;99.90;;;;;;6222451;22;20008;-94
2022/10/22 14:57:53;;;;;;;21.95;19.85;;;22.10;99.90;;;;;;6203892;23;20008;-93
2022/10/22 15:00:20;;;;;;;22.90;18.40;;;22.00;99.90;;;;;;6248720;22;20015;-91
2022/10/22 15:02:47;;;;;;;20.02;18.13;;;21.90;99.90;;;;;;6223096;22;19996;-92
2022/10/22 15:05:18;;;;;;;18.33;16.65;;;21.80;99.90;;;;;;6248374;22;20086;-94
2022/10/22 15:08:05;;;;;;;19.30;17.25;;;21.70;99.90;;;;;;6249883;22;20008;-93
2022/10/22 15:10:32;;;;;;;19.55;16.88;;;21.80;99.90;;;;;;6248508;22;20426;-91
2022/10/22 15:12:58;;;;;;;19.25;17.50;;;21.70;99.90;;;;;;6222944;22;20000;-93
2022/10/22 15:15:25;;;;;;;18.52;16.83;;;21.80;99.90;;;;;;6223070;23;20012;-92
2022/10/22 15:17:52;;;;;;;18.25;16.63;;;21.70;99.90;;;;;;6222643;23;20000;-94
2022/10/22 15:20:18;;;;;;;18.55;16.77;;;21.70;99.90;;;;;;6249246;22;20426;-93
2022/10/22 15:22:45;;;;;;;19.27;17.50;;;21.70;99.90;;;;;;6223230;22;20007;-91
2022/10/22 15:25:13;;;;;;;19.02;17.33;;;21.70;99.90;;;;;;6248902;22;20012;-92
2022/10/22 15:27:39;;;;;;;21.85;18.52;;;21.60;99.90;;;;;;6223825;22;20008;-92
2022/10/22 15:30:07;;;;;;;18.05;16.65;;;21.60;99.90;;;;;;6222893;23;20011;-92
2022/10/22 15:32:35;;;;;;;19.08;17.23;;;21.60;99.90;;;;;;6224672;22;20012;-90
2022/10/22 15:35:01;;;;;;;19.77;17.90;;;21.50;99.90;;;;;;6228275;23;20421;-89
2022/10/22 15:37:28;;;;;;;17.70;16.27;;;21.40;99.90;;;;;;6226149;22;20004;-91
2022/10/22 15:39:54;;;;;;;18.35;16.75;;;21.30;99.90;;;;;;6224753;23;20430;-92
2022/10/22 15:42:22;;;;;;;19.38;17.48;;;21.20;99.90;;;;;;6228045;22;20422;-92
2022/10/22 15:45:57;;;;;;;19.52;17.55;;;21.20;99.90;;;;;;6232415;22;20017;-93
2022/10/22 15:57:12;;;;;;;;;;;;;;;;;;;;;
2022/10/22 16:42:15;;;;;;;16.77;13.73;;;19.60;99.90;;;;;;6248912;22;20031;-92
2022/10/22 17:01:45;;;;;;;;;;;;;;;;;;;;;
2022/10/22 17:15:43;;;;;;;20.58;15.65;;;19.20;99.90;;;;;;6208904;22;20024;-94
2022/10/22 17:19:07;;;;;;;26.40;17.80;;;19.20;99.90;;;;;;6204327;23;20008;-93
2022/10/22 17:22:28;;;;;;;26.42;18.42;;;19.20;99.90;;;;;;6094277;23;20014;-94
2022/10/22 17:27:59;;;;;;;33.90;18.17;;;19.20;99.90;;;;;;6252707;22;20024;-92
2022/10/22 17:30:27;;;;;;;27.10;18.10;;;19.20;99.90;;;;;;6222200;23;20004;-92
2022/10/22 17:36:14;;;;;;;29.27;17.27;;;19.10;99.90;;;;;;6162110;23;20021;-93
2022/10/22 17:38:39;;;;;;;27.88;18.80;;;19.20;99.90;;;;;;6166345;23;20009;-91
2022/10/22 17:41:07;;;;;;;30.02;19.40;;;19.20;99.90;;;;;;6166586;23;20009;-92
2022/10/22 17:43:37;;;;;;;24.52;19.13;;;19.20;99.90;;;;;;6166871;23;20050;-94
2022/10/22 17:46:06;;;;;;;26.65;19.05;;;19.20;99.90;;;;;;6160471;23;20447;-92
2022/10/22 17:48:35;;;;;;;27.30;18.85;;;19.10;99.90;;;;;;6158567;23;20008;-92
2022/10/22 17:51:15;;;;;;;30.67;19.13;;;19.10;99.90;;;;;;6161258;23;20073;-91
2022/10/22 17:53:46;;;;;;;26.25;18.00;;;19.10;99.90;;;;;;6161286;23;20005;-91
2022/10/22 17:56:15;;;;;;;24.75;17.40;;;19.10;99.90;;;;;;6161079;23;20437;-93
2022/10/22 17:58:41;;;;;;;29.45;18.67;;;19.10;99.90;;;;;;6161717;23;20012;-92
2022/10/22 18:01:26;;;;;;;25.33;18.80;;;19.10;99.90;;;;;;6160655;23;20284;-93
2022/10/22 18:03:54;;;;;;;27.77;17.98;;;19.10;99.90;;;;;;6160734;23;20017;-91
2022/10/22 18:09:07;;;;;;;29.40;19.50;;;19.00;99.90;;;;;;6185816;23;20021;-91
2022/10/22 18:11:38;;;;;;;31.50;19.95;;;19.00;99.90;;;;;;6161208;23;20009;-91
2022/10/22 18:14:05;;;;;;;26.15;18.17;;;19.00;99.90;;;;;;6160486;23;20021;-92
2022/10/22 18:16:32;;;;;;;25.83;19.02;;;18.90;99.90;;;;;;6155950;23;20009;-92
2022/10/22 18:18:59;;;;;;;30.38;19.50;;;18.90;99.90;;;;;;6157268;23;20144;-92
2022/10/22 18:21:27;;;;;;;33.28;19.08;;;18.90;99.90;;;;;;6158287;23;20423;-92
2022/10/22 18:23:55;;;;;;;31.83;18.58;;;18.90;99.90;;;;;;6168436;23;20089;-92
2022/10/22 18:26:22;;;;;;;27.88;18.98;;;18.90;99.90;;;;;;6200723;23;20049;-91
2022/10/22 18:28:48;;;;;;;27.25;19.92;;;18.90;99.90;;;;;;6182107;23;20006;-93
2022/10/22 18:31:21;;;;;;;26.00;18.27;;;18.90;99.90;;;;;;6173604;23;20013;-92
2022/10/22 18:33:48;;;;;;;33.47;18.75;;;18.90;99.90;;;;;;6158153;23;20036;-92
2022/10/22 18:36:20;;;;;;;30.90;19.38;;;18.90;99.90;;;;;;6155653;23;20009;-92
2022/10/22 18:38:53;;;;;;;30.30;20.30;;;18.80;99.90;;;;;;6158357;23;20423;-90
2022/10/22 18:41:20;;;;;;;29.63;20.70;;;18.80;99.90;;;;;;6157454;23;20052;-93
2022/10/22 18:43:58;;;;;;;29.33;20.73;;;18.80;99.90;;;;;;6156304;23;20501;-94
2022/10/22 18:46:26;;;;;;;33.42;21.70;;;18.80;99.90;;;;;;6180889;23;20028;-92
2022/10/22 18:48:54;;;;;;;33.28;22.17;;;18.70;99.90;;;;;;6155411;23;20006;-94
2022/10/22 18:51:21;;;;;;;30.88;20.52;;;18.70;99.90;;;;;;6180880;23;20023;-92
2022/10/22 18:53:55;;;;;;;34.83;21.52;;;18.60;99.90;;;;;;6155486;23;20008;-94
2022/10/22 18:56:22;;;;;;;31.55;21.08;;;18.60;99.90;;;;;;6180872;23;20009;-92
2022/10/22 18:58:57;;;;;;;32.90;21.50;;;18.60;99.90;;;;;;6157409;23;20017;-92
2022/10/22 19:01:29;;;;;;;32.50;21.60;;;18.50;99.90;;;;;;6180350;23;20010;-92
2022/10/22 19:03:56;;;;;;;35.97;22.05;;;18.50;99.90;;;;;;6155827;23;20061;-91
2022/10/22 19:09:16;;;;;;;36.28;23.77;;;18.50;99.90;;;;;;6180413;23;20085;-93
2022/10/22 19:11:44;;;;;;;30.88;22.30;;;18.50;99.90;;;;;;6152218;23;20029;-93
2022/10/22 19:14:13;;;;;;;34.65;23.13;;;18.40;99.90;;;;;;6155446;23;20347;-92
2022/10/22 19:16:39;;;;;;;37.00;24.25;;;18.40;99.90;;;;;;6179974;23;20028;-92
2022/10/22 19:19:07;;;;;;;40.15;23.48;;;18.30;99.90;;;;;;6155970;23;20435;-91
2022/10/22 19:21:37;;;;;;;42.90;24.58;;;18.30;99.90;;;;;;6181625;23;20005;-94
2022/10/22 19:24:10;;;;;;;42.25;26.35;;;18.20;99.90;;;;;;6156675;23;20016;-92
2022/10/22 19:26:37;;;;;;;37.33;24.60;;;18.20;99.90;;;;;;6180029;23;20024;-92
2022/10/22 19:29:04;;;;;;;36.03;23.95;;;18.30;99.90;;;;;;6158757;23;20009;-94
2022/10/22 19:31:31;;;;;;;43.53;27.10;;;18.30;99.90;;;;;;6182575;23;20020;-92
2022/10/22 19:33:59;;;;;;;40.88;26.20;;;18.30;99.90;;;;;;6156973;23;20012;-92
2022/10/22 19:36:50;;;;;;;42.40;26.33;;;18.30;99.90;;;;;;6157089;23;20068;-93
2022/10/22 19:39:44;;;;;;;44.45;26.08;;;18.30;99.90;;;;;;6173177;23;20021;-93
2022/10/22 19:42:23;;;;;;;40.72;26.13;;;18.30;99.90;;;;;;6179006;23;20005;-92
2022/10/22 19:44:58;;;;;;;40.85;27.58;;;18.30;99.90;;;;;;6173193;23;20014;-92
2022/10/22 19:47:28;;;;;;;45.53;28.65;;;18.30;99.90;;;;;;6195726;23;20024;-92
2022/10/22 19:49:55;;;;;;;40.60;27.23;;;18.30;99.90;;;;;;6174882;23;20016;-92
2022/10/22 19:52:33;;;;;;;41.45;27.05;;;18.30;99.90;;;;;;6204003;23;20012;-93
2022/10/22 19:55:19;;;;;;;37.25;26.35;;;18.20;99.90;;;;;;6179718;23;19997;-92
2022/10/22 19:57:52;;;;;;;42.42;26.90;;;18.20;99.90;;;;;;6167463;23;20121;-92
2022/10/22 20:00:27;;;;;;;43.70;28.90;;;18.20;99.90;;;;;;6166125;23;20051;-92
2022/10/22 20:02:54;;;;;;;49.70;30.08;;;18.20;99.90;;;;;;6162282;23;20010;-92
2022/10/22 20:05:20;;;;;;;45.35;28.67;;;18.20;99.90;;;;;;6159989;23;20021;-91
2022/10/22 20:08:01;;;;;;;52.33;31.35;;;18.20;99.90;;;;;;6167053;23;20018;-93
2022/10/22 20:10:33;;;;;;;57.58;32.35;;;18.20;99.90;;;;;;6199848;23;20021;-93
2022/10/22 20:13:21;;;;;;;49.35;32.65;;;18.10;99.90;;;;;;6173009;23;20010;-93
2022/10/22 20:16:13;;;;;;;56.83;32.63;;;18.20;99.90;;;;;;6080391;23;20015;-94
2022/10/22 20:19:34;;;;;;;50.67;32.03;;;18.10;99.90;;;;;;6060241;23;20075;-93
2022/10/22 20:25:05;;;;;;;48.95;33.30;;;18.10;99.90;;;;;;6249302;22;20020;-93
2022/10/22 20:28:22;;;;;;;62.53;34.95;;;18.10;99.90;;;;;;6208883;23;20012;-94
2022/10/22 20:37:34;;;;;;;61.85;35.33;;;18.20;99.90;;;;;;6292460;22;20055;-93
2022/10/22 20:43:29;;;;;;;68.82;38.63;;;18.20;99.90;;;;;;6205754;23;20005;-93
2022/10/22 20:54:56;;;;;;;79.43;43.00;;;18.30;99.90;;;;;;6251733;22;20028;-93
2022/10/22 20:57:23;;;;;;;65.85;39.05;;;18.20;99.90;;;;;;6198876;23;20001;-92
2022/10/22 20:59:53;;;;;;;65.32;37.80;;;18.20;99.90;;;;;;6197389;23;20035;-92
2022/10/22 21:02:20;;;;;;;68.60;39.05;;;18.10;99.90;;;;;;6197755;23;20004;-93
2022/10/22 21:04:46;;;;;;;60.42;35.22;;;18.10;99.90;;;;;;6196657;23;20008;-93
2022/10/22 21:07:13;;;;;;;61.88;37.42;;;18.10;99.90;;;;;;6196386;23;20012;-92
2022/10/22 21:09:40;;;;;;;61.92;36.53;;;18.10;99.90;;;;;;6197460;23;20024;-93
2022/10/22 21:12:07;;;;;;;59.95;35.42;;;18.10;99.90;;;;;;6197415;23;20376;-93
2022/10/22 21:14:36;;;;;;;55.92;34.85;;;18.00;99.90;;;;;;6197963;23;20005;-92
2022/10/22 21:17:02;;;;;;;60.65;36.92;;;18.00;99.90;;;;;;6197779;23;20008;-93
2022/10/22 21:19:30;;;;;;;71.95;39.60;;;18.10;99.90;;;;;;6199090;23;20001;-92
2022/10/22 21:21:57;;;;;;;52.58;34.97;;;18.00;99.90;;;;;;6197476;23;20008;-93
2022/10/22 21:24:25;;;;;;;59.92;36.75;;;18.00;99.90;;;;;;6196037;23;20004;-93
2022/10/22 21:26:53;;;;;;;60.38;35.63;;;17.90;99.90;;;;;;6196212;23;20091;-92
2022/10/22 21:29:20;;;;;;;70.80;40.88;;;17.90;99.90;;;;;;6196953;23;20003;-92
2022/10/22 21:31:46;;;;;;;69.38;40.53;;;17.90;99.90;;;;;;6196462;23;20030;-92
2022/10/22 21:34:13;;;;;;;51.53;33.90;;;17.90;99.90;;;;;;6196731;23;20004;-93
2022/10/22 21:36:41;;;;;;;65.55;38.03;;;17.90;99.90;;;;;;6196543;23;20004;-93
2022/10/22 21:39:08;;;;;;;68.07;38.63;;;17.90;99.90;;;;;;6197415;23;20043;-94
2022/10/22 21:41:37;;;;;;;78.45;42.83;;;17.80;99.90;;;;;;6196288;23;20008;-92
2022/10/22 21:44:06;;;;;;;56.03;33.55;;;17.80;99.90;;;;;;6196666;23;20011;-93
2022/10/22 21:46:45;;;;;;;61.40;36.20;;;17.80;99.90;;;;;;6133156;23;20164;-93
2022/10/22 21:49:37;;;;;;;69.57;40.53;;;17.70;99.90;;;;;;6132616;23;20090;-93
2022/10/22 21:52:05;;;;;;;67.18;37.88;;;17.70;99.90;;;;;;6069526;23;20131;-93
2022/10/22 21:54:34;;;;;;;74.00;40.25;;;17.60;99.90;;;;;;6031748;23;20019;-92
2022/10/22 21:57:01;;;;;;;79.43;40.72;;;17.60;99.90;;;;;;5982454;23;20023;-93
2022/10/22 21:59:31;;;;;;;74.20;41.63;;;17.60;99.90;;;;;;5982572;23;20016;-94
2022/10/22 22:01:58;;;;;;;70.90;39.28;;;17.50;99.90;;;;;;5982215;23;20016;-92
2022/10/22 22:04:25;;;;;;;60.63;37.47;;;17.50;99.90;;;;;;5982580;23;20044;-94
2022/10/22 22:06:53;;;;;;;80.63;42.55;;;17.50;99.90;;;;;;5982929;23;20016;-91
2022/10/22 22:09:20;;;;;;;66.80;36.92;;;17.50;99.90;;;;;;5982952;23;20099;-92
2022/10/22 22:11:46;;;;;;;59.20;35.90;;;17.40;99.90;;;;;;5983489;23;20030;-93
2022/10/22 22:14:16;;;;;;;61.90;37.80;;;17.40;99.90;;;;;;5983223;24;20016;-93
2022/10/22 22:16:45;;;;;;;62.22;37.50;;;17.40;99.90;;;;;;5983464;23;20091;-93
2022/10/22 22:19:12;;;;;;;63.30;36.58;;;17.40;99.90;;;;;;5983767;23;20020;-92
2022/10/22 22:21:39;;;;;;;73.03;41.97;;;17.40;99.90;;;;;;5985754;23;20011;-93
2022/10/22 22:24:11;;;;;;;58.80;37.45;;;17.40;99.90;;;;;;6033945;23;20423;-90
2022/10/22 22:26:47;;;;;;;66.80;40.05;;;17.30;99.90;;;;;;6046998;23;20018;-92
2022/10/22 22:29:13;;;;;;;78.07;42.28;;;17.40;99.90;;;;;;6078940;23;20010;-92
2022/10/22 22:31:41;;;;;;;70.93;40.10;;;17.50;99.90;;;;;;6079097;23;20036;-93
2022/10/22 22:34:12;;;;;;;65.38;37.13;;;17.50;99.90;;;;;;6115840;23;20087;-92
2022/10/22 22:36:48;;;;;;;73.85;39.90;;;17.40;99.90;;;;;;6170936;23;20027;-92
2022/10/22 22:39:22;;;;;;;68.68;40.80;;;17.40;99.90;;;;;;6169523;23;20009;-93
2022/10/22 22:41:49;;;;;;;66.38;38.38;;;17.40;99.90;;;;;;6168318;23;20012;-92
2022/10/22 22:44:16;;;;;;;73.32;40.47;;;17.30;99.90;;;;;;6167759;23;20022;-92
2022/10/22 22:46:43;;;;;;;78.68;41.47;;;17.30;99.90;;;;;;6192382;23;20032;-92
2022/10/22 22:49:16;;;;;;;66.60;40.10;;;17.20;99.90;;;;;;6166617;23;20027;-92
2022/10/22 22:51:49;;;;;;;64.90;39.25;;;17.20;99.90;;;;;;6171336;23;20009;-92
2022/10/22 22:54:18;;;;;;;67.40;39.55;;;17.20;99.90;;;;;;6225947;22;20020;-92
2022/10/22 22:56:45;;;;;;;63.47;38.10;;;17.20;99.90;;;;;;6209775;23;20008;-91
2022/10/22 22:59:18;;;;;;;66.30;38.50;;;17.10;99.90;;;;;;6193958;23;20016;-92
2022/10/22 23:01:48;;;;;;;72.35;39.78;;;17.20;99.90;;;;;;6190493;23;20008;-92
2022/10/22 23:04:21;;;;;;;68.25;40.83;;;17.10;99.90;;;;;;6190467;23;20008;-91
2022/10/22 23:06:49;;;;;;;55.87;35.03;;;17.10;99.90;;;;;;6190513;23;20016;-90
2022/10/22 23:09:25;;;;;;;67.45;38.60;;;17.00;99.90;;;;;;6190394;23;20000;-91
2022/10/22 23:11:58;;;;;;;65.30;38.72;;;17.00;99.90;;;;;;6190810;23;20510;-90
2022/10/22 23:14:25;;;;;;;62.03;37.08;;;16.90;99.90;;;;;;6190566;23;20055;-90
2022/10/22 23:16:54;;;;;;;77.50;41.47;;;17.00;99.90;;;;;;6192619;23;20001;-93
2022/10/22 23:19:24;;;;;;;72.30;40.80;;;17.10;99.90;;;;;;6192616;23;20374;-94
2022/10/22 23:21:53;;;;;;;65.70;38.10;;;17.20;99.90;;;;;;6192331;23;20011;-91
2022/10/22 23:24:22;;;;;;;71.75;40.25;;;17.10;99.90;;;;;;6192294;23;20009;-93
2022/10/22 23:26:51;;;;;;;66.75;37.47;;;17.10;99.90;;;;;;6193867;23;20131;-92
2022/10/22 23:29:27;;;;;;;68.18;37.15;;;17.00;99.90;;;;;;6192739;23;20035;-92
2022/10/22 23:32:02;;;;;;;63.28;36.95;;;17.00;99.90;;;;;;6192658;23;20059;-92
2022/10/22 23:34:30;;;;;;;81.78;41.03;;;16.90;99.90;;;;;;6192503;23;20009;-92
2022/10/22 23:37:00;;;;;;;78.18;40.38;;;16.90;99.90;;;;;;6192875;23;20008;-91
2022/10/22 23:39:28;;;;;;;73.82;39.40;;;16.80;99.90;;;;;;6192328;23;20514;-92
2022/10/22 23:41:55;;;;;;;131.65;38.33;;;16.70;99.90;;;;;;6192007;23;20008;-92
2022/10/22 23:44:25;;;;;;;63.25;36.15;;;16.70;99.90;;;;;;6192917;23;20399;-92
2022/10/22 23:46:52;;;;;;;80.63;42.60;;;16.70;99.90;;;;;;6193113;23;20048;-92
2022/10/22 23:49:18;;;;;;;63.45;35.50;;;16.70;99.90;;;;;;6192218;23;20443;-92
2022/10/22 23:51:45;;;;;;;153.73;41.88;;;16.70;99.90;;;;;;6192966;23;20008;-92
2022/10/22 23:54:14;;;;;;;80.03;36.10;;;16.70;99.90;;;;;;6191832;23;20016;-93
2022/10/22 23:56:41;;;;;;;70.78;37.30;;;16.70;99.90;;;;;;6192050;23;20009;-94
2022/10/22 23:59:07;;;;;;;63.25;35.97;;;16.70;99.90;;;;;;6192561;23;20442;-92
